Time;durP1;ratioP1;P1;durP2;ratioP2;P2;SDS_P1;SDS_P2;PMS_P1;PMS_P2;Temp;Humidity;BMP_temperature;BMP_pressure;BME280_temperature;BME280_humidity;BME280_pressure;Samples;Min_cycle;Max_cycle;Signal;HPM_P1;HPM_P2
2022/04/14 00:00:11;;;;;;;5.30;4.90;;;14.80;99.90;;;;;;5007304;28;20260;-71
2022/04/14 00:02:38;;;;;;;4.50;4.20;;;14.70;99.90;;;;;;4997120;28;20216;-71
2022/04/14 00:05:06;;;;;;;5.23;4.40;;;14.70;99.90;;;;;;4988044;28;20198;-71
2022/04/14 00:07:32;;;;;;;4.87;4.50;;;14.70;99.90;;;;;;4987242;28;20708;-71
2022/04/14 00:10:01;;;;;;;8.27;5.43;;;14.60;99.90;;;;;;4987508;28;20210;-71
2022/04/14 00:12:27;;;;;;;5.70;5.13;;;14.60;99.90;;;;;;4992240;28;20685;-71
2022/04/14 00:14:54;;;;;;;9.53;4.90;;;14.60;99.90;;;;;;4991873;28;20206;-71
2022/04/14 00:17:21;;;;;;;4.90;4.50;;;14.50;99.90;;;;;;4987447;28;20220;-71
2022/04/14 00:19:48;;;;;;;5.20;4.70;;;14.50;99.90;;;;;;4987585;28;20214;-71
2022/04/14 00:22:14;;;;;;;5.77;4.80;;;14.50;99.90;;;;;;4997371;28;20202;-71
2022/04/14 00:24:41;;;;;;;5.10;4.70;;;14.50;99.90;;;;;;5006735;28;20671;-71
2022/04/14 00:27:09;;;;;;;7.93;4.43;;;14.50;99.90;;;;;;5005609;28;20277;-71
2022/04/14 00:29:36;;;;;;;5.73;4.63;;;14.50;99.90;;;;;;5007029;28;20287;-71
2022/04/14 00:32:02;;;;;;;5.23;4.83;;;14.50;99.90;;;;;;5004353;28;20202;-71
2022/04/14 00:34:29;;;;;;;4.77;4.37;;;14.50;99.90;;;;;;4988212;28;20553;-71
2022/04/14 00:36:55;;;;;;;4.97;4.53;;;14.40;99.90;;;;;;4993850;28;20202;-71
2022/04/14 00:39:22;;;;;;;6.43;4.30;;;14.40;99.90;;;;;;5008001;28;20626;-72
2022/04/14 00:41:49;;;;;;;7.80;5.00;;;14.50;99.90;;;;;;5005923;28;20237;-71
2022/04/14 00:44:17;;;;;;;5.80;5.20;;;14.40;99.90;;;;;;4987651;28;20304;-71
2022/04/14 00:46:43;;;;;;;10.37;4.50;;;14.40;99.90;;;;;;4987729;28;20277;-71
2022/04/14 00:49:10;;;;;;;5.40;4.40;;;14.40;99.90;;;;;;4987300;28;20242;-71
2022/04/14 00:51:37;;;;;;;5.07;4.30;;;14.40;99.90;;;;;;4986811;28;20304;-71
2022/04/14 00:54:04;;;;;;;6.60;4.60;;;14.30;99.90;;;;;;5005764;28;20604;-71
2022/04/14 00:56:30;;;;;;;4.93;4.23;;;14.20;99.90;;;;;;4986537;28;20207;-72
2022/04/14 00:58:57;;;;;;;6.63;4.70;;;14.20;99.90;;;;;;4986515;28;20214;-72
2022/04/14 01:01:25;;;;;;;5.07;4.67;;;14.20;99.90;;;;;;4986525;28;20276;-72
2022/04/14 01:03:53;;;;;;;5.30;4.77;;;14.20;99.90;;;;;;5004371;28;20632;-72
2022/04/14 01:06:21;;;;;;;5.73;5.00;;;14.20;99.90;;;;;;4999150;28;20210;-72
2022/04/14 01:09:16;;;;;;;5.83;4.77;;;14.20;99.90;;;;;;4994434;28;20542;-71
2022/04/14 01:11:36;;;;;;;9.80;4.97;;;14.10;99.90;;;;;;5007661;28;20209;-69
2022/04/14 01:14:03;;;;;;;5.17;4.77;;;14.10;99.90;;;;;;4994289;28;20217;-72
2022/04/14 01:16:30;;;;;;;6.93;5.07;;;14.10;99.90;;;;;;5004540;28;20209;-74
2022/04/14 01:18:57;;;;;;;6.17;4.63;;;14.10;99.90;;;;;;5007834;28;20259;-75
2022/04/14 01:21:27;;;;;;;5.33;4.80;;;14.00;99.90;;;;;;5008779;28;20224;-77
2022/04/14 01:23:55;;;;;;;7.63;4.93;;;14.00;99.90;;;;;;5006457;28;20205;-76
2022/04/14 01:26:23;;;;;;;5.53;4.80;;;13.90;99.90;;;;;;5008612;28;20205;-76
2022/04/14 01:28:49;;;;;;;6.70;4.90;;;13.90;99.90;;;;;;5008492;28;20225;-76
2022/04/14 01:31:16;;;;;;;5.53;5.03;;;13.80;99.90;;;;;;5008163;28;20202;-77
2022/04/14 01:33:42;;;;;;;6.20;4.60;;;13.80;99.90;;;;;;5007850;28;20263;-76
2022/04/14 01:36:09;;;;;;;5.43;4.87;;;13.80;99.90;;;;;;5008164;28;20212;-77
2022/04/14 01:38:38;;;;;;;5.47;4.97;;;13.80;99.90;;;;;;5010368;28;20209;-76
2022/04/14 01:41:09;;;;;;;5.13;4.73;;;13.80;99.90;;;;;;5011999;28;20233;-76
2022/04/14 01:43:35;;;;;;;6.83;4.93;;;13.80;99.90;;;;;;5012420;28;20344;-76
2022/04/14 01:46:08;;;;;;;5.43;4.63;;;13.80;99.90;;;;;;5011816;28;20205;-76
2022/04/14 01:48:35;;;;;;;5.90;5.40;;;13.80;99.90;;;;;;5012238;28;20275;-76
2022/04/14 01:51:01;;;;;;;4.93;4.53;;;13.70;99.90;;;;;;5012025;28;20259;-76
2022/04/14 01:53:28;;;;;;;5.80;4.77;;;13.70;99.90;;;;;;5012114;28;20271;-76
2022/04/14 01:55:54;;;;;;;6.33;4.63;;;13.60;99.90;;;;;;5011694;28;20622;-77
2022/04/14 01:58:22;;;;;;;5.10;4.70;;;13.60;99.90;;;;;;5012168;28;20209;-73
2022/04/14 02:00:49;;;;;;;5.23;4.83;;;13.60;99.90;;;;;;5011930;28;20255;-76
2022/04/14 02:03:15;;;;;;;5.37;4.97;;;13.60;99.90;;;;;;5012063;28;20232;-75
2022/04/14 02:05:42;;;;;;;5.50;4.90;;;13.60;99.90;;;;;;5011999;28;20205;-75
2022/04/14 02:08:09;;;;;;;5.47;5.03;;;13.60;99.90;;;;;;5012168;28;20213;-75
2022/04/14 02:10:36;;;;;;;5.27;4.80;;;13.60;99.90;;;;;;5012113;28;20205;-75
2022/04/14 02:13:03;;;;;;;5.20;4.80;;;13.60;99.90;;;;;;5011000;28;20201;-75
2022/04/14 02:15:31;;;;;;;5.70;5.20;;;13.60;99.90;;;;;;4991859;28;20560;-75
2022/04/14 02:17:57;;;;;;;5.67;5.27;;;13.50;99.90;;;;;;4992444;28;20214;-75
2022/04/14 02:20:24;;;;;;;7.70;6.33;;;13.20;99.90;;;;;;4996691;28;20252;-75
2022/04/14 02:22:51;;;;;;;6.60;5.70;;;13.00;99.90;;;;;;5007381;28;20202;-75
2022/04/14 02:25:18;;;;;;;6.20;5.60;;;13.00;99.90;;;;;;5011544;28;20210;-75
2022/04/14 02:27:44;;;;;;;6.60;6.00;;;12.90;99.90;;;;;;5011785;28;20216;-75
2022/04/14 02:30:11;;;;;;;6.37;5.77;;;12.90;99.90;;;;;;5011088;28;20236;-74
2022/04/14 02:32:39;;;;;;;6.83;5.77;;;13.00;99.90;;;;;;5004812;28;20210;-75
2022/04/14 02:35:07;;;;;;;6.80;6.00;;;13.10;99.90;;;;;;5009981;28;20216;-76
2022/04/14 02:37:33;;;;;;;8.27;6.23;;;13.20;99.90;;;;;;4998826;28;20232;-76
2022/04/14 02:40:00;;;;;;;8.53;5.70;;;13.30;99.90;;;;;;4995231;28;20240;-74
2022/04/14 02:42:26;;;;;;;6.07;5.67;;;13.30;99.90;;;;;;4995590;28;20206;-75
2022/04/14 02:44:53;;;;;;;6.40;5.60;;;13.30;99.90;;;;;;5003604;28;20197;-75
2022/04/14 02:47:20;;;;;;;6.80;6.20;;;13.40;99.90;;;;;;5001354;28;20218;-74
2022/04/14 02:49:48;;;;;;;6.70;6.10;;;13.40;99.90;;;;;;5008823;28;20225;-74
2022/04/14 02:52:14;;;;;;;6.47;5.63;;;13.40;99.90;;;;;;4999008;28;20225;-74
2022/04/14 02:54:41;;;;;;;6.80;6.10;;;13.10;99.90;;;;;;5011037;28;20603;-74
2022/04/14 02:57:09;;;;;;;8.57;7.70;;;13.10;99.90;;;;;;5004756;28;20210;-74
2022/04/14 02:59:36;;;;;;;8.33;7.57;;;13.10;99.90;;;;;;5010682;28;20256;-74
2022/04/14 03:02:04;;;;;;;10.00;7.77;;;13.10;99.90;;;;;;5010466;28;20660;-75
2022/04/14 03:04:31;;;;;;;9.07;7.87;;;13.10;99.90;;;;;;5010734;28;20746;-74
2022/04/14 03:06:59;;;;;;;9.10;8.20;;;13.10;99.90;;;;;;4995452;28;20265;-74
2022/04/14 03:09:26;;;;;;;8.60;7.80;;;13.10;99.90;;;;;;4992070;28;20288;-74
2022/04/14 03:11:52;;;;;;;9.27;7.93;;;13.20;99.90;;;;;;5010473;28;20727;-74
2022/04/14 03:14:19;;;;;;;9.10;8.17;;;13.20;99.90;;;;;;5010168;28;20206;-74
2022/04/14 03:16:46;;;;;;;10.20;7.73;;;13.20;99.90;;;;;;4997411;28;20202;-74
2022/04/14 03:19:12;;;;;;;9.27;8.27;;;13.20;99.90;;;;;;4990803;28;20735;-74
2022/04/14 03:21:39;;;;;;;11.63;8.47;;;13.20;99.90;;;;;;4991099;28;20210;-74
2022/04/14 03:24:07;;;;;;;9.53;8.53;;;13.20;99.90;;;;;;5007072;28;20267;-74
2022/04/14 03:26:34;;;;;;;9.77;8.77;;;13.20;99.90;;;;;;5009746;28;20205;-74
2022/04/14 03:29:01;;;;;;;9.57;8.70;;;13.20;99.90;;;;;;5010158;28;20237;-78
2022/04/14 03:31:27;;;;;;;9.93;8.93;;;13.30;99.90;;;;;;5010179;28;20734;-77
2022/04/14 03:33:54;;;;;;;9.10;8.20;;;13.30;99.90;;;;;;5010764;28;20620;-77
2022/04/14 03:36:21;;;;;;;9.83;8.83;;;13.30;99.90;;;;;;5000838;28;20198;-77
2022/04/14 03:38:47;;;;;;;9.87;8.43;;;13.30;99.90;;;;;;5004588;28;20217;-77
2022/04/14 03:41:15;;;;;;;9.77;8.43;;;13.30;99.90;;;;;;5010155;28;20214;-77
2022/04/14 03:43:42;;;;;;;10.57;9.23;;;13.30;99.90;;;;;;5010316;28;20202;-77
2022/04/14 03:46:08;;;;;;;9.50;8.57;;;13.30;99.90;;;;;;5009644;28;20730;-77
2022/04/14 03:48:36;;;;;;;9.90;8.37;;;13.30;99.90;;;;;;5010136;28;20225;-77
2022/04/14 03:51:05;;;;;;;10.07;8.20;;;13.30;99.90;;;;;;5009814;28;20249;-78
2022/04/14 03:53:31;;;;;;;9.03;8.13;;;13.40;99.90;;;;;;5009943;28;20213;-77
2022/04/14 03:55:58;;;;;;;8.83;8.03;;;13.40;99.90;;;;;;5010420;28;20263;-77
2022/04/14 03:58:26;;;;;;;13.80;9.20;;;13.10;99.90;;;;;;5009982;28;20209;-73
2022/04/14 04:00:52;;;;;;;10.73;8.83;;;13.10;99.90;;;;;;5009387;28;20219;-76
2022/04/14 04:03:19;;;;;;;9.13;8.13;;;13.20;99.90;;;;;;5010249;28;20247;-73
2022/04/14 04:05:46;;;;;;;11.67;8.70;;;13.30;99.90;;;;;;5009405;28;20201;-73
2022/04/14 04:08:12;;;;;;;9.90;8.87;;;13.30;99.90;;;;;;5009595;28;20216;-73
2022/04/14 04:10:39;;;;;;;10.43;8.97;;;13.30;99.90;;;;;;5009505;28;20747;-73
2022/04/14 04:13:06;;;;;;;8.67;7.87;;;13.30;99.90;;;;;;5009150;28;20571;-76
2022/04/14 04:15:34;;;;;;;9.77;8.40;;;13.40;99.90;;;;;;5009263;28;20213;-76
2022/04/14 04:18:01;;;;;;;9.37;8.13;;;13.40;99.90;;;;;;4994034;28;20207;-77
2022/04/14 04:20:28;;;;;;;10.27;8.23;;;13.40;99.90;;;;;;4990241;28;20632;-77
2022/04/14 04:22:55;;;;;;;12.43;8.67;;;13.40;99.90;;;;;;5003480;28;20210;-74
2022/04/14 04:25:21;;;;;;;9.00;8.17;;;13.40;99.90;;;;;;5009013;28;20205;-75
2022/04/14 04:27:48;;;;;;;11.83;7.83;;;13.40;99.90;;;;;;4992228;28;20230;-74
2022/04/14 04:30:15;;;;;;;8.80;7.63;;;13.40;99.90;;;;;;4989797;28;20241;-72
2022/04/14 04:32:43;;;;;;;9.37;7.93;;;13.40;99.90;;;;;;4989801;28;20210;-73
2022/04/14 04:35:11;;;;;;;8.63;7.73;;;13.40;99.90;;;;;;5003696;28;20429;-72
2022/04/14 04:37:37;;;;;;;12.43;7.87;;;13.40;99.90;;;;;;4995153;28;20206;-73
2022/04/14 04:40:05;;;;;;;9.23;8.20;;;13.40;99.90;;;;;;5008665;28;20618;-72
2022/04/14 04:42:32;;;;;;;13.27;8.17;;;13.20;99.90;;;;;;5009111;28;20248;-75
2022/04/14 04:44:58;;;;;;;8.53;7.73;;;13.30;99.90;;;;;;5008990;28;20260;-75
2022/04/14 04:47:25;;;;;;;9.00;8.10;;;13.30;99.90;;;;;;5008255;28;20221;-75
2022/04/14 04:49:53;;;;;;;8.90;7.87;;;13.30;99.90;;;;;;5008787;28;20260;-75
2022/04/14 04:52:19;;;;;;;8.33;7.50;;;13.40;99.90;;;;;;5009081;28;20349;-75
2022/04/14 04:54:46;;;;;;;10.63;8.50;;;13.30;99.90;;;;;;5007252;28;20209;-72
2022/04/14 04:57:13;;;;;;;8.67;7.70;;;13.30;99.90;;;;;;5008763;28;20256;-73
2022/04/14 04:59:39;;;;;;;8.93;7.77;;;13.30;99.90;;;;;;5008791;28;20264;-73
2022/04/14 05:02:06;;;;;;;9.23;8.13;;;13.30;99.90;;;;;;5008717;28;20206;-73
2022/04/14 05:04:33;;;;;;;8.80;7.90;;;13.40;99.90;;;;;;5008860;28;20198;-73
2022/04/14 05:07:01;;;;;;;9.53;8.53;;;13.40;99.90;;;;;;5008676;28;20217;-73
2022/04/14 05:09:27;;;;;;;9.23;7.53;;;13.40;99.90;;;;;;5008802;28;20225;-72
2022/04/14 05:11:54;;;;;;;10.20;8.20;;;13.50;99.90;;;;;;5006396;28;20660;-73
2022/04/14 05:14:21;;;;;;;9.97;7.97;;;13.50;99.90;;;;;;5007966;28;20210;-73
2022/04/14 05:16:47;;;;;;;10.20;7.80;;;13.50;99.90;;;;;;5008710;28;20632;-72
2022/04/14 05:19:14;;;;;;;9.53;7.63;;;13.50;99.90;;;;;;5008251;28;20213;-72
2022/04/14 05:21:40;;;;;;;15.20;8.13;;;13.60;99.90;;;;;;5008406;28;20268;-71
2022/04/14 05:24:08;;;;;;;9.07;7.90;;;13.50;99.90;;;;;;5003973;28;20213;-71
2022/04/14 05:26:35;;;;;;;10.33;7.63;;;13.50;99.90;;;;;;4988578;28;20213;-71
2022/04/14 05:29:02;;;;;;;8.33;7.53;;;13.60;99.90;;;;;;4988389;28;20202;-71
2022/04/14 05:31:29;;;;;;;8.93;7.87;;;13.60;99.90;;;;;;5003736;28;20300;-72
2022/04/14 05:33:55;;;;;;;10.60;8.30;;;13.60;99.90;;;;;;5007900;28;20205;-72
2022/04/14 05:36:22;;;;;;;9.70;7.73;;;13.60;99.90;;;;;;5007875;28;20300;-72
2022/04/14 05:38:49;;;;;;;8.40;7.60;;;13.60;99.90;;;;;;5008242;28;20206;-72
2022/04/14 05:41:17;;;;;;;9.70;7.43;;;13.70;99.90;;;;;;5008067;28;20213;-72
2022/04/14 05:43:43;;;;;;;8.07;7.27;;;13.70;99.90;;;;;;4998411;28;20202;-72
2022/04/14 05:46:10;;;;;;;7.73;7.03;;;13.70;99.90;;;;;;5004604;28;20259;-71
2022/04/14 05:48:37;;;;;;;8.00;7.17;;;13.80;99.90;;;;;;4997807;28;20218;-71
2022/04/14 05:51:07;;;;;;;9.17;7.70;;;13.70;99.90;;;;;;4987996;28;20304;-75
2022/04/14 05:53:34;;;;;;;8.40;7.20;;;13.70;99.90;;;;;;5002185;28;20213;-75
2022/04/14 05:56:01;;;;;;;8.27;7.47;;;13.70;99.90;;;;;;5003347;28;20857;-75
2022/04/14 05:58:29;;;;;;;11.07;7.90;;;13.70;99.90;;;;;;5002562;28;20587;-78
2022/04/14 06:00:55;;;;;;;9.03;8.23;;;13.50;99.90;;;;;;5007989;28;20209;-79
2022/04/14 06:03:22;;;;;;;8.40;7.60;;;13.50;99.90;;;;;;5008035;28;20209;-77
2022/04/14 06:05:49;;;;;;;7.70;7.00;;;13.60;99.90;;;;;;4993862;28;20265;-78
2022/04/14 06:08:15;;;;;;;9.13;8.07;;;13.60;99.90;;;;;;4998583;28;20209;-78
2022/04/14 06:10:42;;;;;;;10.57;7.83;;;13.50;99.90;;;;;;5008053;28;20637;-76
2022/04/14 06:13:11;;;;;;;8.73;7.57;;;13.50;99.90;;;;;;5007988;28;20210;-75
2022/04/14 06:15:39;;;;;;;10.13;7.73;;;13.40;99.90;;;;;;5002252;28;20229;-75
2022/04/14 06:18:06;;;;;;;9.07;8.10;;;13.60;99.90;;;;;;4994123;28;20669;-72
2022/04/14 06:20:33;;;;;;;9.27;7.20;;;13.60;99.90;;;;;;5007819;28;20201;-73
2022/04/14 06:22:59;;;;;;;9.37;8.03;;;13.70;99.90;;;;;;5007902;28;20553;-73
2022/04/14 06:25:26;;;;;;;8.90;8.00;;;13.80;99.90;;;;;;5011624;28;20201;-72
2022/04/14 06:27:56;;;;;;;8.90;7.93;;;13.80;99.90;;;;;;4996634;28;20210;-72
2022/04/14 06:30:23;;;;;;;10.53;8.33;;;13.80;99.90;;;;;;5000048;28;20448;-72
2022/04/14 06:32:58;;;;;;;9.73;8.40;;;13.90;99.90;;;;;;5011464;28;20991;-71
2022/04/14 06:35:25;;;;;;;10.43;8.20;;;14.00;99.90;;;;;;5010835;28;20217;-73
2022/04/14 06:37:52;;;;;;;9.23;8.30;;;13.90;99.90;;;;;;5004587;28;20209;-72
2022/04/14 06:40:19;;;;;;;11.30;8.30;;;13.90;99.90;;;;;;5011347;28;20214;-75
2022/04/14 06:42:46;;;;;;;8.50;7.07;;;13.90;99.90;;;;;;5007997;28;20650;-76
2022/04/14 06:45:13;;;;;;;8.23;7.53;;;13.90;99.90;;;;;;4992436;28;20245;-74
2022/04/14 06:47:39;;;;;;;10.00;7.90;;;14.00;99.90;;;;;;4992617;28;20249;-73
2022/04/14 06:50:08;;;;;;;8.47;7.60;;;14.10;99.90;;;;;;4991165;28;20234;-75
2022/04/14 06:52:37;;;;;;;8.87;7.93;;;14.10;99.90;;;;;;4995196;28;20203;-73
2022/04/14 06:55:04;;;;;;;8.40;7.47;;;14.10;99.90;;;;;;4995893;28;20201;-74
2022/04/14 06:57:30;;;;;;;13.77;8.10;;;14.10;99.90;;;;;;5006874;28;20209;-74
2022/04/14 06:59:57;;;;;;;11.27;7.20;;;14.20;99.90;;;;;;5007500;28;20255;-74
2022/04/14 07:02:24;;;;;;;8.57;7.77;;;14.20;99.90;;;;;;4995812;28;20210;-74
2022/04/14 07:04:50;;;;;;;12.57;7.67;;;14.20;99.90;;;;;;5008925;28;20264;-76
2022/04/14 07:07:18;;;;;;;8.57;7.77;;;14.30;99.90;;;;;;5007178;28;20299;-74
2022/04/14 07:09:45;;;;;;;7.67;6.53;;;14.30;99.90;;;;;;4995289;28;20209;-75
2022/04/14 07:12:13;;;;;;;7.87;6.73;;;14.40;99.90;;;;;;5007147;28;20229;-74
2022/04/14 07:14:40;;;;;;;9.00;7.17;;;14.50;99.90;;;;;;5008599;28;20209;-74
2022/04/14 07:17:07;;;;;;;6.80;6.20;;;14.60;99.90;;;;;;5008736;28;20308;-74
2022/04/14 07:19:33;;;;;;;13.00;6.83;;;14.70;99.90;;;;;;5008580;28;20214;-74
2022/04/14 07:22:00;;;;;;;6.87;6.20;;;14.70;99.90;;;;;;5008035;28;20209;-75
2022/04/14 07:24:28;;;;;;;9.57;7.43;;;14.80;99.90;;;;;;5007993;28;20840;-73
2022/04/14 07:26:55;;;;;;;10.83;6.37;;;14.80;99.90;;;;;;5007739;28;20726;-74
2022/04/14 07:29:21;;;;;;;7.43;6.43;;;14.90;99.90;;;;;;5008511;28;20217;-73
2022/04/14 07:31:49;;;;;;;8.53;6.00;;;14.90;99.90;;;;;;5008681;28;20233;-73
2022/04/14 07:34:16;;;;;;;6.73;5.77;;;15.10;99.90;;;;;;5009043;28;20210;-73
2022/04/14 07:36:44;;;;;;;6.77;6.03;;;15.10;99.90;;;;;;5008153;28;20292;-73
2022/04/14 07:39:10;;;;;;;10.33;6.40;;;15.20;99.90;;;;;;5008344;28;20240;-74
2022/04/14 07:41:38;;;;;;;6.83;5.90;;;15.30;99.90;;;;;;5007766;28;20214;-74
2022/04/14 07:44:06;;;;;;;11.43;6.00;;;15.40;99.90;;;;;;5007794;28;20218;-73
2022/04/14 07:46:35;;;;;;;6.87;5.70;;;15.40;99.90;;;;;;5008416;28;20237;-74
2022/04/14 07:49:02;;;;;;;6.50;5.67;;;15.50;99.90;;;;;;5008131;28;20247;-73
2022/04/14 07:51:29;;;;;;;8.20;6.10;;;15.50;99.90;;;;;;5000617;28;20311;-73
2022/04/14 07:53:55;;;;;;;6.73;5.17;;;15.50;99.90;;;;;;5003799;28;20749;-73
2022/04/14 07:56:22;;;;;;;7.93;5.30;;;15.50;99.90;;;;;;4993885;28;20210;-73
2022/04/14 07:58:51;;;;;;;5.97;4.73;;;15.60;99.90;;;;;;5003329;28;20202;-73
2022/04/14 08:01:18;;;;;;;5.63;4.90;;;15.60;99.90;;;;;;5004772;28;20564;-73
2022/04/14 08:03:46;;;;;;;6.73;5.10;;;15.60;99.90;;;;;;5009736;28;20229;-74
2022/04/14 08:06:15;;;;;;;7.97;5.13;;;15.70;99.90;;;;;;5009753;28;20245;-74
2022/04/14 08:08:42;;;;;;;8.83;5.33;;;15.80;99.90;;;;;;4990094;28;20280;-73
2022/04/14 08:11:10;;;;;;;5.27;4.40;;;15.80;99.90;;;;;;4999710;28;20282;-73
2022/04/14 08:13:38;;;;;;;5.73;4.67;;;15.80;99.90;;;;;;5008512;28;20214;-73
2022/04/14 08:16:09;;;;;;;5.70;5.03;;;15.80;99.90;;;;;;5008478;28;20774;-73
2022/04/14 08:18:37;;;;;;;4.70;4.30;;;15.90;99.90;;;;;;5009565;28;20209;-74
2022/04/14 08:21:07;;;;;;;11.40;4.37;;;15.90;99.90;;;;;;5009408;28;20275;-73
2022/04/14 08:23:38;;;;;;;6.87;4.47;;;15.90;99.90;;;;;;5003520;28;20239;-73
2022/04/14 08:26:07;;;;;;;5.03;4.03;;;16.00;99.90;;;;;;5005820;28;20210;-74
2022/04/14 08:28:34;;;;;;;5.00;4.60;;;16.00;99.90;;;;;;5009390;28;20686;-74
2022/04/14 08:31:05;;;;;;;8.00;4.40;;;16.20;99.90;;;;;;5008867;28;20233;-73
2022/04/14 08:33:33;;;;;;;4.37;3.83;;;16.30;99.90;;;;;;5009343;28;20208;-73
2022/04/14 08:36:00;;;;;;;5.57;4.07;;;16.40;99.90;;;;;;5009278;28;20263;-73
2022/04/14 08:38:27;;;;;;;6.63;3.80;;;16.40;99.90;;;;;;5009594;28;20268;-73
2022/04/14 08:40:58;;;;;;;3.23;3.03;;;16.50;99.90;;;;;;5008869;28;20213;-73
2022/04/14 08:43:32;;;;;;;4.50;2.63;;;16.50;99.90;;;;;;4990092;28;20202;-73
2022/04/14 08:46:00;;;;;;;3.37;2.63;;;16.60;99.90;;;;;;4989286;28;20285;-73
2022/04/14 08:48:28;;;;;;;8.47;3.30;;;16.60;99.90;;;;;;5004735;28;20213;-73
2022/04/14 08:50:57;;;;;;;2.63;2.53;;;16.60;99.90;;;;;;5008634;28;20648;-73
2022/04/14 08:53:26;;;;;;;5.27;4.93;;;16.50;99.90;;;;;;5004695;28;20575;-73
2022/04/14 08:55:53;;;;;;;12.60;3.63;;;16.30;99.90;;;;;;5008876;28;20210;-73
2022/04/14 08:58:26;;;;;;;3.47;2.53;;;16.30;99.90;;;;;;5009029;28;20259;-73
2022/04/14 09:00:54;;;;;;;5.73;3.47;;;16.30;99.90;;;;;;5008638;28;20555;-73
2022/04/14 09:03:20;;;;;;;6.33;5.13;;;16.10;99.90;;;;;;5008442;28;20205;-73
2022/04/14 09:05:47;;;;;;;5.40;4.90;;;16.00;99.90;;;;;;5008877;28;20240;-73
2022/04/14 09:08:15;;;;;;;4.50;4.10;;;16.00;99.90;;;;;;5008204;28;20210;-73
2022/04/14 09:10:43;;;;;;;4.67;3.80;;;16.10;99.90;;;;;;5008783;28;20237;-73
2022/04/14 09:13:12;;;;;;;4.60;4.20;;;16.10;99.90;;;;;;5008444;28;20726;-73
2022/04/14 09:15:39;;;;;;;4.67;3.80;;;16.00;99.90;;;;;;5008506;28;20217;-73
2022/04/14 09:18:07;;;;;;;4.00;3.63;;;15.90;99.90;;;;;;5008483;28;20271;-73
2022/04/14 09:20:36;;;;;;;5.30;3.70;;;15.90;99.90;;;;;;5008117;28;20255;-73
2022/04/14 09:23:21;;;;;;;3.93;3.63;;;15.90;99.90;;;;;;5002406;28;20216;-73
2022/04/14 09:25:50;;;;;;;3.47;3.27;;;15.80;99.90;;;;;;5008496;28;20233;-73
2022/04/14 09:28:18;;;;;;;5.30;3.83;;;15.70;99.90;;;;;;5008358;28;20735;-73
2022/04/14 09:31:05;;;;;;;4.77;4.37;;;15.70;99.90;;;;;;5008136;28;20232;-73
2022/04/14 09:33:32;;;;;;;5.20;4.33;;;15.60;99.90;;;;;;5008542;28;20229;-73
2022/04/14 09:36:10;;;;;;;4.53;3.77;;;15.40;99.90;;;;;;5008190;28;20223;-73
2022/04/14 09:38:58;;;;;;;4.30;3.90;;;15.40;99.90;;;;;;5008579;28;20205;-73
2022/04/14 09:41:37;;;;;;;4.53;4.00;;;15.40;99.90;;;;;;5006641;28;20210;-73
2022/04/14 09:44:06;;;;;;;5.73;4.37;;;15.40;99.90;;;;;;4986509;28;20220;-72
2022/04/14 09:46:33;;;;;;;6.80;4.30;;;15.40;99.90;;;;;;4988083;28;20275;-72
2022/04/14 09:49:10;;;;;;;3.93;3.63;;;15.50;99.90;;;;;;5005782;28;20209;-73
2022/04/14 09:51:38;;;;;;;4.73;4.40;;;15.60;99.90;;;;;;4989655;28;20769;-73
2022/04/14 09:54:15;;;;;;;5.57;4.03;;;15.40;99.90;;;;;;5004021;28;20213;-73
2022/04/14 09:56:45;;;;;;;4.60;4.20;;;15.40;99.90;;;;;;5006604;28;20293;-73
2022/04/14 09:59:13;;;;;;;5.37;4.87;;;15.20;99.90;;;;;;5007791;28;21021;-73
2022/04/14 10:01:40;;;;;;;3.53;3.23;;;15.20;99.90;;;;;;5010250;28;20217;-73
2022/04/14 10:04:10;;;;;;;5.20;3.47;;;15.30;99.90;;;;;;5009334;28;20213;-73
2022/04/14 10:06:37;;;;;;;3.23;2.93;;;15.50;99.90;;;;;;5009911;28;20241;-73
2022/04/14 10:09:04;;;;;;;6.20;3.40;;;15.60;99.90;;;;;;5009281;28;20209;-73
2022/04/14 10:11:34;;;;;;;2.97;2.77;;;15.70;99.90;;;;;;5009189;28;20237;-73
2022/04/14 10:14:12;;;;;;;4.27;2.87;;;15.70;99.90;;;;;;5009059;28;20198;-73
2022/04/14 10:16:39;;;;;;;3.13;2.93;;;15.90;99.90;;;;;;5009275;28;20267;-73
2022/04/14 10:19:08;;;;;;;3.70;2.97;;;15.90;99.90;;;;;;4999403;28;20202;-73
2022/04/14 10:21:36;;;;;;;5.13;2.90;;;15.80;99.90;;;;;;5003558;28;20210;-73
2022/04/14 10:24:03;;;;;;;5.03;2.80;;;15.70;99.90;;;;;;5009226;28;20271;-73
2022/04/14 10:26:33;;;;;;;3.27;3.07;;;15.80;99.90;;;;;;5009605;28;20205;-74
2022/04/14 10:29:01;;;;;;;2.80;2.60;;;15.90;99.90;;;;;;5009433;28;20210;-73
2022/04/14 10:31:28;;;;;;;3.40;2.43;;;15.80;99.90;;;;;;5007743;28;20323;-73
2022/04/14 10:33:56;;;;;;;2.17;2.03;;;15.90;99.90;;;;;;5009025;28;20260;-73
2022/04/14 10:36:22;;;;;;;2.20;2.10;;;16.00;99.90;;;;;;5009206;28;20209;-73
2022/04/14 10:38:50;;;;;;;2.30;2.20;;;16.00;99.90;;;;;;5009699;28;20209;-73
2022/04/14 10:41:21;;;;;;;2.03;1.93;;;15.70;99.90;;;;;;5009295;28;20205;-73
2022/04/14 10:43:49;;;;;;;1.70;1.60;;;15.60;99.90;;;;;;5009071;28;20204;-73
2022/04/14 10:46:17;;;;;;;2.60;1.97;;;15.60;99.90;;;;;;5007864;28;20221;-73
2022/04/14 10:48:44;;;;;;;3.23;1.80;;;15.70;99.90;;;;;;5008820;28;20312;-73
2022/04/14 10:51:27;;;;;;;1.70;1.60;;;15.70;99.90;;;;;;5008544;28;20237;-73
2022/04/14 10:53:59;;;;;;;1.70;1.60;;;15.80;99.90;;;;;;5004772;28;20335;-73
2022/04/14 10:56:50;;;;;;;1.63;1.40;;;15.70;99.90;;;;;;5008813;28;20213;-73
2022/04/14 10:59:22;;;;;;;1.80;1.70;;;15.60;99.90;;;;;;4994268;28;20205;-73
2022/04/14 11:02:02;;;;;;;1.93;1.83;;;15.30;99.90;;;;;;5008556;28;20212;-73
2022/04/14 11:04:32;;;;;;;2.10;2.00;;;15.20;99.90;;;;;;5008448;28;20197;-73
2022/04/14 11:07:01;;;;;;;5.00;2.50;;;15.20;99.90;;;;;;5008148;28;20268;-73
2022/04/14 11:09:51;;;;;;;6.70;2.40;;;15.10;99.90;;;;;;5008307;28;20682;-73
2022/04/14 11:12:20;;;;;;;4.47;2.73;;;14.90;99.90;;;;;;5007718;28;20216;-73
2022/04/14 11:14:50;;;;;;;2.63;2.20;;;14.80;99.90;;;;;;4996827;28;20205;-73
2022/04/14 11:17:52;;;;;;;3.37;2.20;;;14.90;99.90;;;;;;5000281;28;20600;-73
2022/04/14 11:20:21;;;;;;;2.60;2.40;;;14.90;99.90;;;;;;5000729;28;20711;-73
2022/04/14 11:23:05;;;;;;;2.77;2.17;;;15.00;99.90;;;;;;5006577;28;20688;-73
2022/04/14 11:25:50;;;;;;;2.10;2.00;;;15.00;99.90;;;;;;5005719;28;20198;-73
2022/04/14 11:28:23;;;;;;;2.40;2.20;;;14.90;99.90;;;;;;4997241;28;20191;-73
2022/04/14 11:30:52;;;;;;;2.27;2.17;;;14.90;99.90;;;;;;4994949;28;20195;-73
2022/04/14 11:33:25;;;;;;;3.67;2.70;;;14.90;99.90;;;;;;4995883;28;20317;-73
2022/04/14 11:35:53;;;;;;;3.20;2.90;;;14.90;99.90;;;;;;4998839;28;20614;-73
2022/04/14 11:38:51;;;;;;;2.93;2.70;;;14.90;99.90;;;;;;4999332;28;20204;-75
2022/04/14 11:41:46;;;;;;;3.27;2.43;;;14.80;99.90;;;;;;4998976;28;20259;-70
2022/04/14 11:44:15;;;;;;;2.30;2.20;;;14.60;99.90;;;;;;4995844;28;20671;-70
2022/04/14 11:46:45;;;;;;;2.57;2.40;;;14.40;99.90;;;;;;4993786;28;20233;-70
2022/04/14 11:49:13;;;;;;;3.30;3.00;;;14.50;99.90;;;;;;5001458;28;20232;-70
2022/04/14 11:51:48;;;;;;;3.40;3.10;;;14.60;99.90;;;;;;4996980;28;20267;-70
2022/04/14 11:54:21;;;;;;;3.90;3.50;;;14.40;99.90;;;;;;5002422;28;20296;-70
2022/04/14 11:56:52;;;;;;;3.20;3.00;;;14.40;99.90;;;;;;5000960;28;20619;-71
2022/04/14 11:59:20;;;;;;;3.30;3.00;;;14.40;99.90;;;;;;4995577;28;20201;-71
2022/04/14 12:01:51;;;;;;;2.60;2.40;;;14.30;99.90;;;;;;4998052;28;20265;-71
2022/04/14 12:04:18;;;;;;;3.17;2.97;;;14.40;99.90;;;;;;5000957;28;20206;-70
2022/04/14 12:06:52;;;;;;;2.47;2.27;;;14.30;99.90;;;;;;4998020;28;20210;-70
2022/04/14 12:09:24;;;;;;;2.80;2.60;;;14.40;99.90;;;;;;4996891;28;20202;-71
2022/04/14 12:11:51;;;;;;;2.60;2.40;;;14.40;99.90;;;;;;4997168;28;20213;-71
2022/04/14 12:14:18;;;;;;;3.10;2.80;;;14.30;99.90;;;;;;4998473;28;20241;-71
2022/04/14 12:16:49;;;;;;;3.03;2.77;;;14.20;99.90;;;;;;4997205;28;20615;-71
2022/04/14 12:19:17;;;;;;;3.30;2.70;;;14.20;99.90;;;;;;4996541;28;20282;-72
2022/04/14 12:21:44;;;;;;;2.70;2.50;;;14.30;99.90;;;;;;4999352;28;20257;-73
2022/04/14 12:24:11;;;;;;;2.57;2.37;;;14.30;99.90;;;;;;5000154;28;20205;-73
2022/04/14 12:26:40;;;;;;;2.53;2.33;;;14.10;99.90;;;;;;4996456;28;20217;-74
2022/04/14 12:29:08;;;;;;;3.53;2.80;;;14.00;99.90;;;;;;4996907;28;20647;-73
2022/04/14 12:31:35;;;;;;;2.57;2.30;;;13.90;99.90;;;;;;4995990;28;20220;-73
2022/04/14 12:34:02;;;;;;;2.80;2.60;;;13.90;99.90;;;;;;4999905;28;20206;-73
2022/04/14 12:36:38;;;;;;;2.83;2.60;;;13.80;99.90;;;;;;4996850;28;20206;-73
2022/04/14 12:39:07;;;;;;;2.60;2.40;;;13.80;99.90;;;;;;4997287;28;20251;-73
2022/04/14 12:41:35;;;;;;;2.50;2.30;;;13.70;99.90;;;;;;4999258;28;20281;-74
2022/04/14 12:44:02;;;;;;;2.30;2.20;;;13.70;99.90;;;;;;4998610;28;20195;-73
2022/04/14 12:46:30;;;;;;;2.40;2.30;;;13.80;99.90;;;;;;4995845;28;20277;-73
2022/04/14 12:49:01;;;;;;;3.90;2.47;;;13.90;99.90;;;;;;4995817;28;20206;-73
2022/04/14 12:51:34;;;;;;;2.50;2.30;;;14.00;99.90;;;;;;5000469;28;20238;-73